Flight Track Log - Related Links

Times and Time Zones

All times are in EDT time to prevent confusion due to time zone crossing. See the AWE728 flight status page for this flight to view local times or setup timezone preferences in your user account.

Time Position Orientation Groundspeed Altitude Reporting Facility
EDT Latitude Longitude Course Direction KTS MPH feet Rate Location/Type
Fri 10:12:30 PM 39.8601 -75.2789 258° West 171 197 400  Level FlightAware ADS-B (KWWD)
Fri 10:12:46 PM 39.8563 -75.2938 246° West 167 192 1,100 1,021 Climbing FlightAware ADS-B (KWWD)
Fri 10:13:17 PM 39.8546 -75.2983 243° Southwest 171 197 1,200 706 Climbing FlightAware ADS-B (KPHL)
Fri 10:13:54 PM 39.8347 -75.3450 242° Southwest 223 257 1,900 1,100 Climbing FlightAware ADS-B
Fri 10:14:17 PM 39.8281 -75.3613 243° Southwest 240 276 2,300 1,826 Climbing FlightAware ADS-B (KPHL)
Fri 10:14:40 PM 39.8104 -75.4038 234° Southwest 254 292 3,300 2,632 Climbing FlightAware ADS-B
Fri 10:15:14 PM 39.7849 -75.4265 178° South 257 296 4,800 2,438 Climbing FlightAware ADS-B
Fri 10:15:44 PM 39.7408 -75.4195 168° South 258 297 5,900 2,226 Climbing FlightAware ADS-B
Fri 10:16:16 PM 39.7213 -75.3489 76° East 286 329 7,100 2,233 Climbing FlightAware ADS-B (KWWD)
Fri 10:16:27 PM 39.7251 -75.3313 76° East 287 330 7,500 2,323 Climbing FlightAware ADS-B (KWWD)
Fri 10:16:47 PM 39.7311 -75.2961 80° East 295 339 8,300 1,102 Climbing FlightAware ADS-B (KWWD)
Fri 10:17:16 PM 39.7318 -75.2915 80° East 295 339 8,400 1,607 Climbing FlightAware ADS-B (KPHL)
Fri 10:17:43 PM 39.7408 -75.4195 82° East 299 344 9,800 1,692 Climbing FlightAware ADS-B
Fri 10:18:34 PM 39.7474 -75.1547 82° East 337 388 10,600 970 Climbing FlightAware ADS-B
Fri 10:19:22 PM 39.7608 -75.0300 82° East 389 448 11,400 975 Climbing FlightAware ADS-B
Fri 10:19:54 PM 39.7652 -74.9884 82° East 398 458 11,900 835 Climbing FlightAware ADS-B
Fri 10:21:17 PM 39.7867 -74.7839 82° East 399 459 13,000 1,434 Climbing FlightAware ADS-B (KPHL)
Fri 10:21:47 PM 39.8420 -74.6700 37° Northeast 398 458 14,600 1,714 Climbing FlightAware ADS-B (KWWD)
Fri 10:23:16 PM 39.9351 -74.5776 37° Northeast 407 468 16,400 1,500 Climbing FlightAware ADS-B (KPHL)
Fri 10:24:07 PM 40.0081 -74.5053 37° Northeast 414 476 18,100 1,597 Climbing FlightAware ADS-B (KPHL)
Fri 10:25:35 PM 40.1415 -74.3688 47° Northeast 430 495 20,100 1,395 Climbing FlightAware ADS-B
Fri 10:26:16 PM 40.1970 -74.2786 52° Northeast 440 506 21,100 1,412 Climbing FlightAware ADS-B (KPHL)
Fri 10:27:17 PM 40.2742 -74.1495 52° Northeast 443 510 22,500 1,419 Climbing FlightAware ADS-B (KPHL)
Fri 10:27:49 PM 40.3150 -74.0811 52° Northeast 443 510 23,300 1,160 Climbing FlightAware ADS-B (KSNC)
Fri 10:29:16 PM 40.4282 -73.8970 44° Northeast 450 518 24,800 1,200 Climbing FlightAware ADS-B (KPHL)
Fri 10:29:49 PM 40.5196 -73.7858 43° Northeast 459 528 25,700 923 Climbing FlightAware ADS-B (KWWD)
Fri 10:30:21 PM 40.5276 -73.7759 43° Northeast 459 528 25,800 717 Climbing FlightAware ADS-B (KSNC)
Fri 10:31:21 PM 40.6185 -73.6581 45° Northeast 464 534 26,800 989 Climbing FlightAware ADS-B (KSNC)
Fri 10:31:52 PM 40.6659 -73.5959 45° Northeast 467 537 27,300 783 Climbing FlightAware ADS-B (KSNC)
Fri 10:32:30 PM 40.7193 -73.5256 45° Northeast 475 547 27,700 618 Climbing FlightAware ADS-B (KSNC)
Fri 10:33:00 PM 40.7698 -73.4587 45° Northeast 481 554 28,000 554 Climbing FlightAware ADS-B (KSNC)
Fri 10:33:35 PM 40.8221 -73.3894 45° Northeast 487 560 28,300 646 Climbing FlightAware ADS-B (KSNC)
Fri 10:34:05 PM 40.8740 -73.3189 47° Northeast 492 566 28,700 689 Climbing FlightAware ADS-B (KSNC)
Fri 10:34:36 PM 40.9125 -73.2643 47° Northeast 495 570 29,000 1,029 Climbing FlightAware ADS-B (KSNC)
Fri 10:35:15 PM 40.9802 -73.1691 47° Northeast 487 560 29,900 1,200 Climbing FlightAware ADS-B (KSNC)
Fri 10:35:46 PM 41.0297 -73.0995 47° Northeast 484 557 30,400 1,082 Climbing FlightAware ADS-B (KSNC)
Fri 10:36:16 PM 41.0722 -73.0395 47° Northeast 482 555 31,000 868 Climbing FlightAware ADS-B (KSNC)
Fri 10:37:02 PM 41.1445 -72.9372 47° Northeast 482 555 31,500 698 Climbing FlightAware ADS-B (KSNC)
Fri 10:37:42 PM 41.2070 -72.8486 47° Northeast 483 556 32,000 857 Climbing FlightAware ADS-B (KSNC)
Fri 10:38:12 PM 41.2522 -72.7844 47° Northeast 481 554 32,500 845 Climbing FlightAware ADS-B (KSNC)
Fri 10:38:53 PM 41.3018 -72.7136 47° Northeast 478 550 33,000 385 Climbing FlightAware ADS-B (KSNC)
Fri 10:39:30 PM 41.3692 -72.6172 47° Northeast 474 545 33,000  Level FlightAware ADS-B (KSNC)
Fri 10:40:01 PM 41.4121 -72.5558 47° Northeast 476 548 33,000  Level FlightAware ADS-B (KSNC)
Fri 10:40:32 PM 41.4544 -72.4950 47° Northeast 472 543 33,000  Level FlightAware ADS-B (KSNC)
Fri 10:41:10 PM 41.5184 -72.4028 47° Northeast 472 543 33,000  Level FlightAware ADS-B (KSNC)
Fri 10:41:40 PM 41.5614 -72.3408 47° Northeast 471 542 33,000  Level FlightAware ADS-B (KSNC)
Fri 10:42:20 PM 41.6164 -72.2610 47° Northeast 469 540 33,000  Level FlightAware ADS-B (KSNC)
Fri 10:42:59 PM 41.6768 -72.1734 48° Northeast 468 539 33,000  Level FlightAware ADS-B (KSNC)
Fri 10:43:30 PM 41.7183 -72.1131 48° Northeast 471 542 33,000  Level FlightAware ADS-B (KSNC)
Fri 10:44:03 PM 41.7701 -72.0375 48° Northeast 473 544 33,000  Level FlightAware ADS-B (KSNC)
Fri 10:44:42 PM 41.8302 -71.9495 48° Northeast 474 545 33,000  Level FlightAware ADS-B (KSNC)
Fri 10:45:18 PM 41.8828 -71.8724 48° Northeast 475 547 33,000  Level FlightAware ADS-B (KASH)
Fri 10:45:49 PM 41.9279 -71.8061 48° Northeast 474 545 33,000  Level FlightAware ADS-B (KASH)
Fri 10:46:19 PM 41.9729 -71.7397 48° Northeast 474 545 33,000  Level FlightAware ADS-B (KASH)
Fri 10:46:49 PM 42.0174 -71.6740 48° Northeast 475 547 33,000  Level FlightAware ADS-B (KASH)
Fri 10:47:20 PM 42.0621 -71.6078 48° Northeast 476 548 33,000  Level FlightAware ADS-B (KASH)
Fri 10:47:50 PM 42.1075 -71.5403 48° Northeast 477 549 33,000  Level FlightAware ADS-B (KASH)
Fri 10:48:20 PM 42.1505 -71.4763 49° Northeast 467 537 33,000  Level FlightAware ADS-B (KASH)
Fri 10:48:50 PM 42.1942 -71.4134 49° Northeast 461 531 33,000  Level FlightAware ADS-B (KASH)
Fri 10:49:35 PM 42.2591 -71.3141 48° Northeast 463 533 33,000  Level FlightAware ADS-B (KASH)
Fri 10:50:13 PM 42.3137 -71.2324 48° Northeast 462 532 33,000  Level FlightAware ADS-B (EPKK / KRK)
Fri 10:50:43 PM 42.3517 -71.1752 48° Northeast 464 534 33,000  Level FlightAware ADS-B (EPKK / KRK)
Fri 10:51:19 PM 42.4087 -71.0893 49° Northeast 464 534 33,000  Level FlightAware ADS-B (KASH)
Fri 10:51:49 PM 42.4513 -71.0250 49° Northeast 466 536 33,000  Level FlightAware ADS-B (KASH)
Fri 10:52:25 PM 42.5003 -70.9508 48° Northeast 473 544 33,000  Level FlightAware ADS-B (EPKK / KRK)
Fri 10:52:56 PM 42.5489 -70.8770 48° Northeast 468 539 33,000  Level FlightAware ADS-B (EPKK / KRK)
Fri 10:53:26 PM 42.5888 -70.8161 48° Northeast 465 535 33,000  Level FlightAware ADS-B (EPKK / KRK)
Fri 10:53:57 PM 42.6274 -70.7575 49° Northeast 465 535 33,000  Level FlightAware ADS-B (EPKK / KRK)
Fri 10:54:27 PM 42.6772 -70.6814 48° Northeast 465 535 33,000  Level FlightAware ADS-B (EPKK / KRK)
Fri 10:55:02 PM 42.7283 -70.6031 49° Northeast 468 539 33,000  Level FlightAware ADS-B (EPKK / KRK)
Fri 10:55:32 PM 42.7682 -70.5418 49° Northeast 466 536 33,000  Level FlightAware ADS-B (EPKK / KRK)
Fri 10:56:07 PM 42.8202 -70.4617 49° Northeast 463 533 33,000  Level FlightAware ADS-B (EPKK / KRK)
Fri 10:56:37 PM 42.8627 -70.3962 49° Northeast 462 532 33,000  Level FlightAware ADS-B (EPKK / KRK)
Fri 10:57:07 PM 42.9032 -70.3335 49° Northeast 464 534 33,000  Level FlightAware ADS-B (EPKK / KRK)
Fri 10:57:37 PM 42.9471 -70.2656 49° Northeast 466 536 33,000  Level FlightAware ADS-B (EPKK / KRK)
Fri 10:58:09 PM 42.9923 -70.1952 49° Northeast 466 536 33,000  Level FlightAware ADS-B (EPKK / KRK)
Fri 10:58:39 PM 43.0362 -70.1269 49° Northeast 468 539 33,000  Level FlightAware ADS-B (EPKK / KRK)
Fri 10:59:19 PM 43.0944 -70.0359 49° Northeast 471 542 33,000  Level FlightAware ADS-B (EPKK / KRK)
Fri 10:59:50 PM 43.1386 -69.9669 49° Northeast 466 536 33,000  Level FlightAware ADS-B (KASH)
Fri 11:00:02 PM 43.1549 -69.9414 50° Northeast 456 525 33,000  Level FlightAware ADS-B (KASH)
Fri 11:00:35 PM 43.1991 -69.8717 49° Northeast 455 524 33,000 730 Level FlightAware ADS-B (EPKK / KRK)
Fri 11:01:16 PM 43.2424 -69.8037 49° Northeast 449 517 33,900 833 Climbing FlightAware ADS-B
Fri 11:01:47 PM 43.2979 -69.7161 49° Northeast 449 517 34,000 128 Climbing FlightAware ADS-B
Fri 11:02:03 PM 43.3201 -69.6808 50° Northeast 445 512 34,000 375 Level FlightAware ADS-B (KASH)
Fri 11:02:35 PM 43.3640 -69.6112 49° Northeast 448 516 34,300 677 Climbing FlightAware ADS-B (KASH)
Fri 11:03:05 PM 43.4041 -69.5475 49° Northeast 447 514 34,700 689 Climbing FlightAware ADS-B (KASH)
Fri 11:03:36 PM 43.4455 -69.4818 49° Northeast 449 517 35,000 393 Climbing FlightAware ADS-B
Fri 11:04:06 PM 43.4861 -69.4170 50° Northeast 448 516 35,100 400 Climbing FlightAware ADS-B (KASH)
Fri 11:04:36 PM 43.5247 -69.3552 49° Northeast 454 522 35,400 700 Climbing FlightAware ADS-B
Fri 11:05:06 PM 43.5691 -69.2841 50° Northeast 453 521 35,800 590 Climbing FlightAware ADS-B
Fri 11:05:37 PM 43.6101 -69.2182 49° Northeast 455 524 36,000 200 Climbing FlightAware ADS-B
Fri 11:06:06 PM 43.6509 -69.1527 50° Northeast 455 524 36,000  Level FlightAware ADS-B (KASH)
Fri 11:06:36 PM 43.6921 -69.0862 50° Northeast 456 525 36,000  Level FlightAware ADS-B (KASH)
Fri 11:07:06 PM 43.7339 -69.0185 50° Northeast 461 531 36,000  Level FlightAware ADS-B
Fri 11:07:36 PM 43.7748 -68.9521 50° Northeast 456 525 36,000  Level FlightAware ADS-B (KASH)
Fri 11:08:07 PM 43.8173 -68.8830 50° Northeast 463 533 36,000  Level FlightAware ADS-B
Fri 11:08:37 PM 43.8577 -68.8173 50° Northeast 465 535 36,000  Level FlightAware ADS-B
Fri 11:09:07 PM 43.9007 -68.7470 50° Northeast 467 537 36,000  Level FlightAware ADS-B
Fri 11:09:37 PM 43.9420 -68.6793 50° Northeast 468 539 36,000  Level FlightAware ADS-B
Fri 11:10:07 PM 43.9841 -68.6102 50° Northeast 468 539 36,000  Level FlightAware ADS-B
Fri 11:10:38 PM 44.0278 -68.5383 50° Northeast 468 539 36,000  Level FlightAware ADS-B (YSBK / BWU)
Fri 11:11:17 PM 44.0749 -68.4607 50° Northeast 468 539 36,000  Level FlightAware ADS-B
Fri 11:11:56 PM 44.1362 -68.3591 50° Northeast 469 540 36,000  Level FlightAware ADS-B
Fri 11:12:27 PM 44.1794 -68.2874 50° Northeast 469 540 36,000  Level FlightAware ADS-B
Fri 11:12:57 PM 44.2174 -68.2243 50° Northeast 470 541 36,000  Level FlightAware ADS-B
Fri 11:13:28 PM 44.2596 -68.1538 50° Northeast 471 542 36,000  Level FlightAware ADS-B
Fri 11:14:00 PM 44.3080 -68.0727 50° Northeast 472 543 36,000  Level FlightAware ADS-B (YSBK / BWU)
Fri 11:14:33 PM 44.3558 -67.9926 50° Northeast 474 545 36,000  Level FlightAware ADS-B (YSBK / BWU)
Fri 11:15:08 PM 44.4001 -67.9183 50° Northeast 474 545 36,000  Level FlightAware ADS-B
Fri 11:15:38 PM 44.4412 -67.8490 50° Northeast 475 547 36,000  Level FlightAware ADS-B
Fri 11:15:45 PM 44.4558 -67.8244 50° Northeast 475 547 36,000  Level FlightAware ADS-B (KBGR)
Fri 11:16:18 PM 44.5015 -67.7470 51° Northeast 475 547 36,000  Level FlightAware ADS-B
Fri 11:16:56 PM 44.5546 -67.6568 51° Northeast 475 547 36,000  Level FlightAware ADS-B
Fri 11:17:28 PM 44.5995 -67.5805 51° Northeast 476 548 36,000  Level FlightAware ADS-B
Fri 11:18:09 PM 44.6549 -67.4859 51° Northeast 478 550 36,000  Level FlightAware ADS-B (YSBK / BWU)
Fri 11:18:48 PM 44.7118 -67.3883 51° Northeast 478 550 36,000  Level FlightAware ADS-B
Fri 11:19:27 PM 44.7653 -67.2964 51° Northeast 478 550 36,000  Level FlightAware ADS-B
Fri 11:19:57 PM 44.8049 -67.2283 51° Northeast 480 552 36,000  Level FlightAware ADS-B
Fri 11:20:37 PM 44.8577 -67.1371 51° Northeast 481 554 36,000  Level FlightAware ADS-B
Fri 11:21:08 PM 44.9041 -67.0566 51° Northeast 480 552 36,000  Level FlightAware ADS-B
Fri 11:21:44 PM 44.9203 -67.0286 51° Northeast 480 552 36,000  Level FlightAware ADS-B
Fri 11:25:07 PM 45.2386 -66.4701 52° Northeast 478 550 36,000  Level FlightAware ADS-B
Fri 11:25:37 PM 45.2797 -66.3974 51° Northeast 479 551 36,000  Level FlightAware ADS-B
Fri 11:26:07 PM 45.3217 -66.3226 51° Northeast 480 552 36,000  Level FlightAware ADS-B
Fri 11:26:37 PM 45.3632 -66.2486 52° Northeast 480 552 36,000  Level FlightAware ADS-B
Fri 11:27:18 PM 45.4192 -66.1485 52° Northeast 481 554 36,000  Level FlightAware ADS-B
Fri 11:27:57 PM 45.4706 -66.0562 52° Northeast 481 554 36,000  Level FlightAware ADS-B
Fri 11:28:27 PM 45.5096 -65.9862 52° Northeast 480 552 36,000  Level FlightAware ADS-B
Fri 11:29:01 PM 45.5614 -65.8927 52° Northeast 479 551 36,000  Level FlightAware ADS-B
Fri 11:29:46 PM 45.6202 -65.7861 52° Northeast 477 549 36,000  Level FlightAware ADS-B
Fri 11:30:16 PM 45.6626 -65.7091 52° Northeast 477 549 36,000  Level FlightAware ADS-B
Fri 11:31:56 PM 45.7920 -65.4727 52° Northeast 475 547 36,000  Level FlightAware ADS-B
Fri 11:32:48 PM 45.8655 -65.3375 52° Northeast 474 545 36,000  Level FlightAware ADS-B
Fri 11:33:18 PM 45.9045 -65.2655 52° Northeast 473 544 36,000  Level FlightAware ADS-B
Fri 11:33:57 PM 45.9596 -65.1635 52° Northeast 471 542 36,000  Level FlightAware ADS-B
Fri 11:34:27 PM 45.9984 -65.0914 52° Northeast 468 539 36,000  Level FlightAware ADS-B
Fri 11:34:57 PM 46.0394 -65.0149 52° Northeast 466 536 36,000  Level FlightAware ADS-B
Fri 11:35:28 PM 46.0805 -64.9383 53° Northeast 464 534 36,000  Level FlightAware ADS-B
Fri 11:36:37 PM 46.1697 -64.7710 53° Northeast 465 535 36,000  Level FlightAware ADS-B
Fri 11:37:13 PM 46.2135 -64.6883 53° Northeast 464 534 36,000  Level FlightAware ADS-B
Fri 11:38:40 PM 46.3300 -64.4675 53° Northeast 464 534 36,000  Level FlightAware ADS-B
Fri 11:39:36 PM 46.4021 -64.3302 53° Northeast 462 532 36,000  Level FlightAware ADS-B
Fri 11:40:12 PM 46.4333 -64.2333 53° Northeast 460 529 36,000  Level Moncton Center
Fri 11:41:12 PM 46.5167 -64.0833 51° Northeast 460 529 36,000  Level Moncton Center
Fri 11:42:12 PM 46.5833 -63.9333 57° Northeast 460 529 36,000  Level Moncton Center
Fri 11:43:01 PM 46.6500 -63.8167 50° Northeast 460 529 36,000  Level Gander Center
Fri 11:44:01 PM 46.7167 -63.6667 57° Northeast 450 518 36,000  Level Gander Center
Fri 11:45:01 PM 46.8000 -63.5333 48° Northeast 460 529 36,000  Level Gander Center
Fri 11:46:01 PM 46.8833 -63.3833 51° Northeast 470 541 36,000  Level Gander Center
Fri 11:47:01 PM 46.9667 -63.2167 54° Northeast 470 541 36,000  Level Gander Center
Fri 11:48:01 PM 47.0333 -63.0667 57° Northeast 460 529 36,000  Level Gander Center
Fri 11:49:01 PM 47.1000 -62.9000 60° Northeast 450 518 36,000  Level Gander Center
Fri 11:55:02 PM 47.5759 -61.9903 54° Northeast 463 533 36,000  Level FlightAware ADS-B (CYQY)
Fri 11:55:08 PM 47.5821 -61.9773 54° Northeast 463 533 36,000  Level FlightAware ADS-B (CYQY)
Fri 11:55:51 PM 47.6325 -61.8722 54° Northeast 461 531 36,000  Level FlightAware ADS-B (CYQY)
Fri 11:56:22 PM 47.6667 -61.7833 54° Northeast 460 529 36,000  Level Gander Center
Fri 11:57:01 PM 47.7000 -61.6833 64° Northeast 460 529 36,000  Level Gander Center
Fri 11:58:01 PM 47.7833 -61.5000 56° Northeast 460 529 36,000  Level Gander Center
Fri 11:59:01 PM 47.8500 -61.3500 56° Northeast 460 529 36,000  Level Gander Center
Sat 12:00:01 AM 47.9333 -61.1833 53° Northeast 470 541 36,000  Level Gander Center
Sat 12:01:01 AM 48.0167 -61.0333 50° Northeast 470 541 36,000  Level Gander Center
Sat 12:02:01 AM 48.0833 -60.8833 56° Northeast 470 541 36,000  Level Gander Center
Sat 12:03:01 AM 48.1500 -60.7000 61° Northeast 470 541 36,000  Level Gander Center
Sat 12:04:01 AM 48.2333 -60.5500 50° Northeast 470 541 36,000  Level Gander Center
Sat 12:05:01 AM 48.3000 -60.3833 59° Northeast 470 541 36,000  Level Gander Center
Sat 12:06:01 AM 48.3833 -60.2333 50° Northeast 470 541 36,000  Level Gander Center
Sat 12:07:01 AM 48.4500 -60.0500 61° Northeast 470 541 36,000  Level Gander Center
Sat 12:08:01 AM 48.5167 -59.9000 56° Northeast 480 552 36,000  Level Gander Center
Sat 12:09:01 AM 48.5833 -59.7333 59° Northeast 480 552 36,000  Level Gander Center
Sat 12:10:01 AM 48.6667 -59.5667 53° Northeast 480 552 36,000  Level Gander Center
Sat 12:11:01 AM 48.7333 -59.4000 59° Northeast 480 552 36,000  Level Gander Center
Sat 12:12:01 AM 48.8167 -59.2333 53° Northeast 480 552 36,000  Level Gander Center
Sat 12:13:01 AM 48.9000 -59.0500 55° Northeast 480 552 36,000  Level Gander Center
Sat 12:14:01 AM 48.9500 -58.8833 65° Northeast 480 552 36,000  Level Gander Center
Sat 12:15:01 AM 49.0333 -58.7000 55° Northeast 470 541 36,000  Level Gander Center
Sat 12:16:01 AM 49.1000 -58.5500 56° Northeast 470 541 36,000  Level Gander Center
Sat 12:17:01 AM 49.1833 -58.3667 55° Northeast 480 552 36,000  Level Gander Center
Sat 12:18:01 AM 49.2500 -58.2167 56° Northeast 480 552 36,000  Level Gander Center
Sat 12:19:01 AM 49.3167 -58.0000 65° Northeast 480 552 36,000  Level Gander Center
Sat 12:20:01 AM 49.3833 -57.8333 58° Northeast 490 564 36,000  Level Gander Center
Sat 12:21:01 AM 49.4500 -57.6500 61° Northeast 480 552 36,000  Level Gander Center
Sat 12:22:01 AM 49.5167 -57.4667 61° Northeast 480 552 36,000  Level Gander Center
Sat 12:23:01 AM 49.5833 -57.3167 56° Northeast 490 564 36,000  Level Gander Center
Sat 12:24:01 AM 49.6667 -57.1167 57° Northeast 480 552 36,000  Level Gander Center
Sat 12:25:01 AM 49.7167 -56.9333 67° East 480 552 36,000  Level Gander Center
Sat 12:26:01 AM 49.8000 -56.7500 55° Northeast 480 552 36,000  Level Gander Center
Sat 12:27:01 AM 49.8500 -56.5833 65° Northeast 480 552 36,000  Level Gander Center
Sat 12:28:01 AM 49.9167 -56.4000 60° Northeast 480 552 36,000  Level Gander Center
Sat 12:29:01 AM 49.9833 -56.2333 58° Northeast 470 541 36,000  Level Gander Center
Sat 12:30:01 AM 50.0500 -56.0500 60° Northeast 480 552 36,000  Level Gander Center
Sat 12:31:01 AM 50.1167 -55.8500 62° Northeast 480 552 36,000  Level Gander Center
Sat 12:32:01 AM 50.1833 -55.6667 60° Northeast 490 564 36,000  Level Gander Center
Sat 12:33:01 AM 50.2333 -55.4667 69° East 490 564 36,000  Level Gander Center
Sat 12:34:01 AM 50.3167 -55.3000 52° Northeast 490 564 36,000  Level Gander Center
Sat 12:35:01 AM 50.3667 -55.0833 70° East 500 575 36,000  Level Gander Center
Sat 12:36:01 AM 50.4500 -54.9167 52° Northeast 500 575 36,000  Level Gander Center
Sat 12:37:01 AM 50.5167 -54.7000 64° Northeast 500 575 36,000  Level Gander Center
Sat 12:38:01 AM 50.5833 -54.5333 58° Northeast 500 575 36,000  Level Gander Center
Sat 12:39:01 AM 50.6333 -54.3500 67° East 510 587 36,000  Level Gander Center
Sat 12:40:01 AM 50.7000 -54.1167 66° East 500 575 36,000  Level Gander Center
Sat 12:41:22 AM 50.8000 -53.8667 58° Northeast 510 587 36,000  Level Gander Center
Sat 12:42:22 AM 50.8500 -53.6667 68° East 510 587 36,000  Level Gander Center
Sat 12:43:22 AM 50.9333 -53.4667 56° Northeast 520 598 36,000  Level Gander Center
Sat 12:44:22 AM 51.0000 -53.2500 64° Northeast 520 598 36,000  Level Gander Center
Sat 12:45:22 AM 51.0500 -53.0500 68° East 530 610 36,000  Level Gander Center
Sat 12:46:22 AM 51.1167 -52.8500 62° Northeast 530 610 36,000  Level Gander Center
Sat 12:47:22 AM 51.1833 -52.6167 65° Northeast 530 610 36,000  Level Gander Center
Sat 12:48:22 AM 51.2500 -52.4167 62° Northeast 520 598 36,000  Level Gander Center
Sat 12:49:22 AM 51.3167 -52.2000 64° Northeast 540 621 36,000  Level Gander Center
Sat 12:50:22 AM 51.4000 -52.0167 54° Northeast 530 610 36,000  Level Gander Center
Sat 12:51:22 AM 51.4500 -51.7833 71° East 530 610 36,000  Level Gander Center
Sat 12:52:22 AM 51.5167 -51.5833 62° Northeast 530 610 36,000  Level Gander Center
Sat 12:53:22 AM 51.5833 -51.3500 65° Northeast 530 610 36,000  Level Gander Center
Sat 12:54:22 AM 51.6333 -51.1500 68° East 540 621 36,000  Level Gander Center
Sat 12:55:22 AM 51.7000 -50.9167 65° Northeast 540 621 36,000  Level Gander Center
Sat 12:56:22 AM 51.7667 -50.7167 62° Northeast 540 621 36,000  Level Gander Center
Sat 12:57:22 AM 51.8333 -50.4833 65° Northeast 540 621 36,000  Level Gander Center
Sat 12:58:22 AM 51.9000 -50.2500 65° Northeast 540 621 36,000  Level Gander Center
Sat 12:59:22 AM 51.9833 -50.0667 54° Northeast 540 621 36,000  Level Gander Center
Sat 01:00:01 AM 52.0333 -49.9500 55° Northeast 540 621 36,000  Level Gander Center
Sat 01:02:00 AM 52.1601 -49.5807 61° Northeast  Level FlightAware Approximate
Sat 01:09:00 AM 52.6056 -48.2670 60° Northeast  Level FlightAware Approximate
Sat 01:10:00 AM 52.6694 -48.0784 61° Northeast  Level FlightAware Approximate
Sat 01:11:00 AM 52.7329 -47.8893 61° Northeast  Level FlightAware Approximate
Sat 01:12:00 AM 52.7962 -47.6997 61° Northeast  Level FlightAware Approximate
Sat 01:13:00 AM 52.8591 -47.5095 61° Northeast  Level FlightAware Approximate
Sat 01:14:00 AM 52.9218 -47.3187 61° Northeast  Level FlightAware Approximate
Sat 01:15:00 AM 52.9841 -47.1274 62° Northeast  Level FlightAware Approximate
Sat 01:16:00 AM 53.0461 -46.9355 62° Northeast  Level FlightAware Approximate
Sat 01:17:00 AM 53.1078 -46.7431 62° Northeast  Level FlightAware Approximate
Sat 01:18:00 AM 53.1692 -46.5502 62° Northeast  Level FlightAware Approximate
Sat 01:19:00 AM 53.2303 -46.3567 62° Northeast  Level FlightAware Approximate
Sat 01:20:00 AM 53.2913 -46.1627 62° Northeast  Level FlightAware Approximate
Sat 01:21:00 AM 53.3519 -45.9682 62° Northeast  Level FlightAware Approximate
Sat 01:22:00 AM 53.4122 -45.7732 63° Northeast  Level FlightAware Approximate
Sat 01:23:00 AM 53.4721 -45.5776 63° Northeast  Level FlightAware Approximate
Sat 01:24:00 AM 53.5318 -45.3814 63° Northeast  Level FlightAware Approximate
Sat 01:25:00 AM 53.5911 -45.1847 63° Northeast  Level FlightAware Approximate
Sat 01:26:00 AM 53.6501 -44.9875 63° Northeast  Level FlightAware Approximate
Sat 01:27:00 AM 53.7088 -44.7897 63° Northeast  Level FlightAware Approximate
Sat 01:28:00 AM 53.7671 -44.5913 63° Northeast  Level FlightAware Approximate
Sat 01:29:00 AM 53.8251 -44.3924 64° Northeast  Level FlightAware Approximate
Sat 01:30:00 AM 53.8828 -44.1930 64° Northeast  Level FlightAware Approximate
Sat 01:31:00 AM 53.9402 -43.9930 64° Northeast  Level FlightAware Approximate
Sat 01:32:00 AM 53.9975 -43.7927 64° Northeast  Level FlightAware Approximate
Sat 01:33:00 AM 54.0548 -43.5920 64° Northeast  Level FlightAware Approximate
Sat 01:34:00 AM 54.1118 -43.3909 64° Northeast  Level FlightAware Approximate
Sat 01:35:00 AM 54.1684 -43.1892 64° Northeast  Level FlightAware Approximate
Sat 01:36:00 AM 54.2247 -42.9869 64° Northeast  Level FlightAware Approximate
Sat 01:37:00 AM 54.2806 -42.7841 65° Northeast  Level FlightAware Approximate
Sat 01:38:00 AM 54.3362 -42.5807 65° Northeast  Level FlightAware Approximate
Sat 01:39:00 AM 54.3915 -42.3768 65° Northeast  Level FlightAware Approximate
Sat 01:40:00 AM 54.4464 -42.1723 65° Northeast  Level FlightAware Approximate
Sat 01:41:00 AM 54.5010 -41.9673 65° Northeast  Level FlightAware Approximate
Sat 01:42:00 AM 54.5552 -41.7618 65° Northeast  Level FlightAware Approximate
Sat 01:43:00 AM 54.6091 -41.5557 66° East  Level FlightAware Approximate
Sat 01:44:00 AM 54.6626 -41.3490 66° East  Level FlightAware Approximate
Sat 01:45:00 AM 54.7158 -41.1418 66° East  Level FlightAware Approximate
Sat 01:46:00 AM 54.7686 -40.9341 66° East  Level FlightAware Approximate
Sat 01:47:00 AM 54.8210 -40.7258 66° East  Level FlightAware Approximate
Sat 01:48:00 AM 54.8731 -40.5170 66° East  Level FlightAware Approximate
Sat 01:49:00 AM 54.9249 -40.3076 67° East  Level FlightAware Approximate
Sat 01:50:00 AM 54.9762 -40.0977 67° East  Level FlightAware Approximate
Sat 01:51:00 AM 54.9929 -39.8784 96° East  Level FlightAware Approximate
Sat 01:52:00 AM 54.9792 -39.6513 96° East  Level FlightAware Approximate
Sat 01:53:00 AM 54.9651 -39.4243 96° East  Level FlightAware Approximate
Sat 01:54:00 AM 54.9506 -39.1975 96° East  Level FlightAware Approximate
Sat 01:55:00 AM 54.9356 -38.9709 96° East  Level FlightAware Approximate
Sat 01:56:00 AM 54.9203 -38.7444 97° East  Level FlightAware Approximate
Sat 01:57:00 AM 54.9045 -38.5181 97° East  Level FlightAware Approximate
Sat 01:58:00 AM 54.8883 -38.2920 97° East  Level FlightAware Approximate
Sat 01:59:00 AM 54.8717 -38.0661 97° East  Level FlightAware Approximate
Sat 02:00:00 AM 54.8546 -37.8403 97° East  Level FlightAware Approximate
Sat 02:01:00 AM 54.8372 -37.6148 98° East  Level FlightAware Approximate
Sat 02:02:00 AM 54.8193 -37.3894 98° East  Level FlightAware Approximate
Sat 02:03:00 AM 54.8010 -37.1643 98° East  Level FlightAware Approximate
Sat 02:04:00 AM 54.7823 -36.9393 98° East  Level FlightAware Approximate
Sat 02:05:00 AM 54.7632 -36.7146 98° East  Level FlightAware Approximate
Sat 02:06:00 AM 54.7436 -36.4901 98° East  Level FlightAware Approximate
Sat 02:07:00 AM 54.7237 -36.2658 99° East  Level FlightAware Approximate
Sat 02:08:00 AM 54.7033 -36.0417 99° East  Level FlightAware Approximate
Sat 02:09:00 AM 54.6825 -35.8179 99° East  Level FlightAware Approximate
Sat 02:10:00 AM 54.6615 -35.5942 99° East  Level FlightAware Approximate
Sat 02:11:00 AM 54.6404 -35.3707 99° East  Level FlightAware Approximate
Sat 02:12:00 AM 54.6188 -35.1474 99° East  Level FlightAware Approximate
Sat 02:13:00 AM 54.5969 -34.9244 100° East  Level FlightAware Approximate
Sat 02:14:00 AM 54.5746 -34.7016 100° East  Level FlightAware Approximate
Sat 02:15:00 AM 54.5518 -34.4790 100° East  Level FlightAware Approximate
Sat 02:16:00 AM 54.5286 -34.2567 100° East  Level FlightAware Approximate
Sat 02:17:00 AM 54.5051 -34.0346 100° East  Level FlightAware Approximate
Sat 02:18:00 AM 54.4811 -33.8129 100° East  Level FlightAware Approximate
Sat 02:19:00 AM 54.4567 -33.5913 101° East  Level FlightAware Approximate
Sat 02:20:00 AM 54.4319 -33.3700 101° East  Level FlightAware Approximate
Sat 02:21:00 AM 54.4067 -33.1490 101° East  Level FlightAware Approximate
Sat 02:22:00 AM 54.3812 -32.9283 101° East  Level FlightAware Approximate
Sat 02:23:00 AM 54.3552 -32.7079 101° East  Level FlightAware Approximate
Sat 02:24:00 AM 54.3288 -32.4877 102° East  Level FlightAware Approximate
Sat 02:25:00 AM 54.3020 -32.2678 102° East  Level FlightAware Approximate
Sat 02:26:00 AM 54.2748 -32.0482 102° East  Level FlightAware Approximate
Sat 02:27:00 AM 54.2472 -31.8289 102° East  Level FlightAware Approximate
Sat 02:28:00 AM 54.2192 -31.6099 102° East  Level FlightAware Approximate
Sat 02:29:00 AM 54.1908 -31.3912 102° East  Level FlightAware Approximate
Sat 02:30:00 AM 54.1620 -31.1728 103° East  Level FlightAware Approximate
Sat 02:31:00 AM 54.1329 -30.9547 103° East  Level FlightAware Approximate
Sat 02:32:00 AM 54.1033 -30.7369 103° East  Level FlightAware Approximate
Sat 02:33:00 AM 54.0733 -30.5194 103° East  Level FlightAware Approximate
Sat 02:34:00 AM 54.0430 -30.3022 103° East  Level FlightAware Approximate
Sat 02:35:00 AM 54.0122 -30.0854 103° East  Level FlightAware Approximate
Sat 02:36:00 AM 54.0055 -29.8653 86° East  Level FlightAware Approximate
Sat 02:37:00 AM 54.0143 -29.6428 86° East  Level FlightAware Approximate
Sat 02:38:00 AM 54.0227 -29.4202 86° East  Level FlightAware Approximate
Sat 02:39:00 AM 54.0307 -29.1976 86° East  Level FlightAware Approximate
Sat 02:40:00 AM 54.0382 -28.9748 87° East  Level FlightAware Approximate
Sat 02:41:00 AM 54.0454 -28.7520 87° East  Level FlightAware Approximate
Sat 02:42:00 AM 54.0521 -28.5292 87° East  Level FlightAware Approximate
Sat 02:43:00 AM 54.0585 -28.3062 87° East  Level FlightAware Approximate
Sat 02:44:00 AM 54.0644 -28.0832 87° East  Level FlightAware Approximate
Sat 02:45:00 AM 54.0699 -27.8601 88° East  Level FlightAware Approximate
Sat 02:46:00 AM 54.0750 -27.6369 88° East  Level FlightAware Approximate
Sat 02:47:00 AM 54.0797 -27.4137 88° East  Level FlightAware Approximate
Sat 02:48:00 AM 54.0839 -27.1905 88° East  Level FlightAware Approximate
Sat 02:49:00 AM 54.0878 -26.9672 88° East  Level FlightAware Approximate
Sat 02:50:00 AM 54.0912 -26.7439 88° East  Level FlightAware Approximate
Sat 02:51:00 AM 54.0942 -26.5205 89° East  Level FlightAware Approximate
Sat 02:52:00 AM 54.0968 -26.2971 89° East  Level FlightAware Approximate
Sat 02:53:00 AM 54.0990 -26.0737 89° East  Level FlightAware Approximate
Sat 02:54:00 AM 54.1008 -25.8503 89° East  Level FlightAware Approximate
Sat 02:55:00 AM 54.1022 -25.6268 89° East  Level FlightAware Approximate
Sat 02:56:00 AM 54.1031 -25.4033 89° East  Level FlightAware Approximate
Sat 02:57:00 AM 54.1037 -25.1798 90° East  Level FlightAware Approximate
Sat 02:58:00 AM 54.1038 -24.9564 90° East  Level FlightAware Approximate
Sat 02:59:00 AM 54.1035 -24.7329 90° East  Level FlightAware Approximate
Sat 03:00:00 AM 54.1028 -24.5094 90° East  Level FlightAware Approximate
Sat 03:01:00 AM 54.1017 -24.2859 90° East  Level FlightAware Approximate
Sat 03:02:00 AM 54.1002 -24.0625 91° East  Level FlightAware Approximate
Sat 03:03:00 AM 54.0982 -23.8391 91° East  Level FlightAware Approximate
Sat 03:03:19 AM 54.0975 -23.7683 91° East  Level FlightAware Approximate
Sat 03:04:00 AM 54.0959 -23.6156 91° East  Level FlightAware Approximate
Sat 03:05:00 AM 54.0931 -23.3923 91° East  Level FlightAware Approximate
Sat 03:05:00 AM 54.0931 -23.3923 91° East  Level FlightAware Approximate
Sat 03:06:00 AM 54.0899 -23.1689 91° East  Level FlightAware Approximate
Sat 03:06:00 AM 54.0899 -23.1689 91° East  Level FlightAware Approximate
Sat 03:07:00 AM 54.0863 -22.9456 91° East  Level FlightAware Approximate
Sat 03:07:00 AM 54.0863 -22.9456 91° East  Level FlightAware Approximate
Sat 03:08:00 AM 54.0823 -22.7223 92° East  Level FlightAware Approximate
Sat 03:08:00 AM 54.0823 -22.7223 92° East  Level FlightAware Approximate
Sat 03:09:00 AM 54.0779 -22.4991 92° East  Level FlightAware Approximate
Sat 03:09:00 AM 54.0779 -22.4991 92° East  Level FlightAware Approximate
Sat 03:10:00 AM 54.0730 -22.2759 92° East  Level FlightAware Approximate
Sat 03:10:00 AM 54.0730 -22.2759 92° East  Level FlightAware Approximate
Sat 03:11:00 AM 54.0678 -22.0528 92° East  Level FlightAware Approximate
Sat 03:11:00 AM 54.0678 -22.0528 92° East  Level FlightAware Approximate
Sat 03:12:00 AM 54.0621 -21.8297 92° East  Level FlightAware Approximate
Sat 03:12:00 AM 54.0621 -21.8297 92° East  Level FlightAware Approximate
Sat 03:13:00 AM 54.0560 -21.6067 93° East  Level FlightAware Approximate
Sat 03:13:00 AM 54.0560 -21.6067 93° East  Level FlightAware Approximate
Sat 03:14:00 AM 54.0496 -21.3838 93° East  Level FlightAware Approximate
Sat 03:14:00 AM 54.0496 -21.3838 93° East  Level FlightAware Approximate
Sat 03:15:00 AM 54.0427 -21.1609 93° East  Level FlightAware Approximate
Sat 03:15:00 AM 54.0427 -21.1609 93° East  Level FlightAware Approximate
Sat 03:16:00 AM 54.0354 -20.9382 93° East  Level FlightAware Approximate
Sat 03:16:00 AM 54.0354 -20.9382 93° East  Level FlightAware Approximate
Sat 03:17:00 AM 54.0276 -20.7154 93° East  Level FlightAware Approximate
Sat 03:17:00 AM 54.0276 -20.7154 93° East  Level FlightAware Approximate
Sat 03:18:00 AM 54.0195 -20.4928 93° East  Level FlightAware Approximate
Sat 03:19:00 AM 54.0109 -20.2703 94° East  Level FlightAware Approximate
Sat 03:20:00 AM 54.0020 -20.0478 94° East  Level FlightAware Approximate
Sat 03:21:00 AM 53.9919 -19.8256 94° East  Level FlightAware Approximate
Sat 03:22:00 AM 53.9813 -19.6035 95° East  Level FlightAware Approximate
Sat 03:23:00 AM 53.9703 -19.3815 95° East  Level FlightAware Approximate
Sat 03:24:00 AM 53.9588 -19.1596 95° East  Level FlightAware Approximate
Sat 03:25:00 AM 53.9470 -18.9378 95° East  Level FlightAware Approximate
Sat 03:26:00 AM 53.9347 -18.7162 95° East  Level FlightAware Approximate
Sat 03:27:00 AM 53.9220 -18.4947 95° East  Level FlightAware Approximate
Sat 03:28:00 AM 53.9090 -18.2733 96° East  Level FlightAware Approximate
Sat 03:29:00 AM 53.8955 -18.0521 96° East  Level FlightAware Approximate
Sat 03:30:00 AM 53.8816 -17.8311 96° East  Level FlightAware Approximate
Sat 03:31:00 AM 53.8673 -17.6101 96° East  Level FlightAware Approximate
Sat 03:32:00 AM 53.8526 -17.3893 96° East  Level FlightAware Approximate
Sat 03:33:00 AM 53.8374 -17.1687 97° East  Level FlightAware Approximate
Sat 03:34:00 AM 53.8219 -16.9483 97° East  Level FlightAware Approximate
Sat 03:35:00 AM 53.8060 -16.7280 97° East  Level FlightAware Approximate
Sat 03:36:00 AM 53.7897 -16.5079 97° East  Level FlightAware Approximate
Sat 03:37:00 AM 53.7730 -16.2879 97° East  Level FlightAware Approximate
Sat 03:38:00 AM 53.7559 -16.0681 97° East  Level FlightAware Approximate
Sat 03:39:00 AM 53.7383 -15.8485 98° East  Level FlightAware Approximate
Sat 03:40:00 AM 53.7204 -15.6292 98° East  Level FlightAware Approximate
Sat 03:41:00 AM 53.7021 -15.4099 98° East  Level FlightAware Approximate
Sat 03:42:00 AM 53.6833 -15.1909 98° East  Level FlightAware Approximate
Sat 03:43:00 AM 53.6643 -14.9721 98° East  Level FlightAware Approximate
Sat 03:44:00 AM 53.6457 -14.7532 98° East  Level FlightAware Approximate
Sat 03:45:00 AM 53.6266 -14.5346 98° East  Level FlightAware Approximate
Sat 03:46:00 AM 53.6072 -14.3161 98° East  Level FlightAware Approximate
Sat 03:46:57 AM 53.9725 -9.7530 99° East 508 585 36,000  Level FlightAware ADS-B
Sat 03:47:00 AM 53.5874 -14.0978 99° East  Level FlightAware Approximate
Sat 03:47:39 AM 53.9560 -9.5829 100° East 507 583 36,000  Level FlightAware ADS-B
Sat 03:48:10 AM 53.9446 -9.4677 100° East 507 583 36,000  Level FlightAware ADS-B
Sat 03:48:59 AM 53.9258 -9.2798 100° East 506 582 36,000  Level FlightAware ADS-B
Sat 03:49:30 AM 53.9161 -9.1844 100° East 505 581 36,000  Level FlightAware ADS-B
Sat 03:50:09 AM 53.8969 -8.9964 100° East 507 583 36,000  Level FlightAware ADS-B
Sat 03:50:51 AM 53.8799 -8.8339 100° East 508 585 36,000  Level FlightAware ADS-B
Sat 03:51:23 AM 53.8666 -8.7072 100° East 506 582 36,000  Level FlightAware ADS-B
Sat 03:52:00 AM 53.8513 -8.5641 100° East 505 581 36,000  Level FlightAware ADS-B (EGAA / BFS)
Sat 03:52:31 AM 53.8389 -8.4491 100° East 503 579 36,000  Level FlightAware ADS-B
Sat 03:53:02 AM 53.8259 -8.3292 101° East 503 579 36,000  Level FlightAware ADS-B
Sat 03:53:20 AM 53.8343 -8.4066 101° East 503 579 36,000  Level FlightAware ADS-B
Sat 03:53:53 AM 53.8037 -8.1280 101° East 503 579 36,000  Level FlightAware ADS-B (EGAA / BFS)
Sat 03:54:27 AM 53.7894 -8.0003 101° East 502 578 36,000  Level FlightAware ADS-B (EGAA / BFS)
Sat 03:54:40 AM 53.7845 -7.9562 101° East 501 577 36,000  Level FlightAware ADS-B
Sat 03:55:10 AM 53.7715 -7.8422 101° East 500 575 36,000  Level FlightAware ADS-B
Sat 03:55:22 AM 53.7650 -7.7851 100° East 499 574 36,000  Level FlightAware ADS-B
Sat 03:55:54 AM 53.7512 -7.6648 101° East 500 575 36,000  Level FlightAware ADS-B
Sat 03:56:31 AM 53.7367 -7.5393 101° East 500 575 36,000  Level FlightAware ADS-B
Sat 03:57:03 AM 53.7203 -7.3994 101° East 497 572 36,000  Level FlightAware ADS-B
Sat 03:57:39 AM 53.7048 -7.2693 101° East 497 572 36,000  Level FlightAware ADS-B (EGAA / BFS)
Sat 03:57:50 AM 53.6993 -7.2220 101° East 497 572 36,000  Level FlightAware ADS-B
Sat 03:58:21 AM 53.6857 -7.1087 101° East 496 571 36,000  Level FlightAware ADS-B
Sat 03:58:57 AM 53.6689 -6.9702 102° East 497 572 36,000  Level FlightAware ADS-B (EGAA / BFS)
Sat 03:59:29 AM 53.6537 -6.8465 102° East 500 575 36,000  Level FlightAware ADS-B
Sat 04:00:02 AM 53.6387 -6.7236 102° East 502 578 36,000  Level FlightAware ADS-B (EGAA / BFS)
Sat 04:00:32 AM 53.6249 -6.6098 102° East 501 577 36,000  Level FlightAware ADS-B (EGAA / BFS)
Sat 04:01:03 AM 53.6102 -6.4903 102° East 501 577 36,000  Level FlightAware ADS-B
Sat 04:01:08 AM 53.6076 -6.4700 102° East 501 577 36,000  Level FlightAware ADS-B (EIDW / DUB)
Sat 04:01:50 AM 53.5882 -6.3124 102° East 501 577 36,000  Level FlightAware ADS-B
Sat 04:02:25 AM 53.5713 -6.1790 101° East 502 578 36,000  Level FlightAware ADS-B
Sat 04:02:48 AM 53.5598 -6.0889 101° East 501 577 36,000  Level FlightAware ADS-B
Sat 04:03:04 AM 53.5518 -6.0290 102° East 498 573 36,000  Level FlightAware ADS-B
Sat 04:03:07 AM 53.5504 -6.0186 102° East 496 571 36,000  Level FlightAware ADS-B
Sat 04:03:29 AM 53.5392 -5.9350 102° East 493 567 36,000  Level FlightAware ADS-B
Sat 04:04:03 AM 53.5221 -5.8086 103° East 496 571 36,000  Level FlightAware ADS-B (EGAA / BFS)
Sat 04:04:33 AM 53.5082 -5.7055 103° East 496 571 36,000  Level FlightAware ADS-B (EGAA / BFS)
Sat 04:05:03 AM 53.4917 -5.5840 103° East 497 572 36,000 128 Level FlightAware ADS-B
Sat 04:05:20 AM 53.4851 -5.5224 98° East 479 551 36,100  Climbing FlightAware ADS-B
Sat 04:06:02 AM 53.4767 -5.3666 98° East 468 539 36,000 -115 Descending FlightAware UK
Sat 04:06:12 AM 53.4761 -5.3423 93° East 469 540 36,000  Level FlightAware ADS-B
Sat 04:06:44 AM 53.4719 -5.2144 93° East 470 541 36,000  Level FlightAware UK
Sat 04:06:50 AM 53.4714 -5.1948 92° East 469 540 36,000  Level FlightAware ADS-B
Sat 04:07:08 AM 53.4694 -5.1298 93° East 472 543 36,000  Level FlightAware ADS-B (EGCW)
Sat 04:07:32 AM 53.4666 -5.0402 92° East 470 541 36,000  Level FlightAware ADS-B
Sat 04:07:51 AM 53.4646 -4.9764 92° East 467 537 36,000  Level FlightAware ADS-B
Sat 04:08:07 AM 53.4627 -4.9170 92° East 467 537 36,000  Level FlightAware ADS-B
Sat 04:08:39 AM 53.4589 -4.7988 93° East 467 537 36,000  Level FlightAware ADS-B (EGCW)
Sat 04:09:09 AM 53.4548 -4.6926 97° East 465 535 36,000  Level FlightAware ADS-B
Sat 04:09:13 AM 53.4540 -4.6812 96° East 463 533 36,000  Level FlightAware ADS-B (EGNR / CEG)
Sat 04:09:49 AM 53.4396 -4.5586 102° East 464 534 36,000  Level FlightAware ADS-B (EIDW / DUB)
Sat 04:10:19 AM 53.4249 -4.4461 102° East 465 535 36,000  Level FlightAware ADS-B
Sat 04:10:52 AM 53.4104 -4.3328 102° East 466 536 36,000  Level FlightAware ADS-B
Sat 04:11:22 AM 53.3966 -4.2261 102° East 469 540 36,000  Level FlightAware ADS-B (EIDW / DUB)
Sat 04:11:33 AM 53.3915 -4.1870 102° East 469 540 36,000  Level FlightAware ADS-B
Sat 04:11:49 AM 53.3842 -4.1319 102° East 468 539 36,000  Level FlightAware ADS-B (EGCD)
Sat 04:11:55 AM 53.3807 -4.1065 102° East 468 539 36,000  Level FlightAware ADS-B
Sat 04:12:25 AM 53.3668 -4.0037 103° East 470 541 36,000  Level FlightAware ADS-B (EIDW / DUB)
Sat 04:12:52 AM 53.3537 -3.9060 102° East 469 540 36,000  Level FlightAware ADS-B (EGCD)
Sat 04:13:24 AM 53.3395 -3.7988 103° East 469 540 36,000  Level FlightAware ADS-B
Sat 04:13:28 AM 53.3375 -3.7834 103° East 469 540 36,000  Level FlightAware ADS-B
Sat 04:13:37 AM 53.3326 -3.7473 102° East 467 537 36,000  Level FlightAware ADS-B (EGCD)
Sat 04:13:40 AM 53.3312 -3.7371 103° East 469 540 36,000  Level FlightAware ADS-B
Sat 04:13:59 AM 53.3221 -3.6712 103° East 469 540 36,000  Level FlightAware ADS-B
Sat 04:14:12 AM 53.3148 -3.6256 103° East 469 540 36,000  Level FlightAware ADS-B
Sat 04:14:24 AM 53.3098 -3.5992 109° East 466 536 36,000  Level FlightAware ADS-B
Sat 04:14:41 AM 53.2946 -3.5278 109° East 462 532 36,000  Level FlightAware ADS-B (EGCD)
Sat 04:14:45 AM 53.2919 -3.5147 109° East 463 533 36,000  Level FlightAware ADS-B (EGCW)
Sat 04:14:54 AM 53.2861 -3.4874 110° East 465 535 36,000  Level FlightAware ADS-B (EGLF / FAB)
Sat 04:15:26 AM 53.2626 -3.3759 109° East 463 533 36,000  Level FlightAware ADS-B (EGCW)
Sat 04:15:32 AM 53.2578 -3.3533 109° East 460 529 36,000  Level FlightAware ADS-B
Sat 04:15:52 AM 53.2441 -3.2889 109° East 460 529 36,000  Level FlightAware ADS-B
Sat 04:16:00 AM 53.2379 -3.2601 109° East 460 529 36,000  Level FlightAware ADS-B (EGCC / MAN)
Sat 04:16:05 AM 53.2346 -3.2443 109° East 459 528 36,000  Level FlightAware ADS-B (EGCD)
Sat 04:16:12 AM 53.2298 -3.2218 109° East 459 528 36,000  Level FlightAware ADS-B
Sat 04:16:18 AM 53.2263 -3.2055 110° East 462 532 36,000  Level FlightAware ADS-B (KPJC)
Sat 04:16:30 AM 53.2175 -3.1646 110° East 462 532 36,000  Level FlightAware ADS-B (EGXU / HRT)
Sat 04:16:40 AM 53.2094 -3.1265 109° East 460 529 36,000  Level FlightAware ADS-B (EGCC / MAN)
Sat 04:16:50 AM 53.2024 -3.0941 110° East 463 533 36,000  Level FlightAware ADS-B
Sat 04:16:57 AM 53.1972 -3.0698 109° East 460 529 36,000  Level FlightAware ADS-B
Sat 04:17:08 AM 53.1897 -3.0353 109° East 459 528 36,000  Level FlightAware ADS-B
Sat 04:17:17 AM 53.1843 -3.0103 109° East 457 526 36,000  Level FlightAware ADS-B (EGNR / CEG)
Sat 04:17:31 AM 53.1736 -2.9604 110° East 460 529 36,000 -649 Level FlightAware ADS-B
Sat 04:17:54 AM 53.1563 -2.8807 109° East 460 529 35,600 -977 Descending FlightAware ADS-B (EGCD)
Sat 04:18:14 AM 53.1417 -2.8136 109° East 459 528 35,300 -923 Descending FlightAware ADS-B (EGCD)
Sat 04:18:33 AM 53.1281 -2.7512 109° East 457 526 35,000 -1,034 Descending FlightAware ADS-B (EGNR / CEG)
Sat 04:18:43 AM 53.1209 -2.7181 109° East 454 522 34,800 -1,143 Descending FlightAware ADS-B (EGCC / MAN)
Sat 04:18:54 AM 53.1130 -2.6818 109° East 449 517 34,600 -900 Descending FlightAware ADS-B (EGCD)
Sat 04:19:03 AM 53.1069 -2.6542 109° East 447 514 34,500 -900 Descending FlightAware ADS-B (EGNR / CEG)
Sat 04:19:14 AM 53.0976 -2.6202 119° Southeast 444 511 34,300 -1,200 Descending FlightAware ADS-B (EGCD)
Sat 04:19:23 AM 53.0871 -2.5927 124° Southeast 436 502 34,100 -1,000 Descending FlightAware ADS-B (EGCC / MAN)
Sat 04:19:32 AM 53.0765 -2.5702 109° East 450 518 34,000 -462 Descending FlightAware ADS-B
Sat 04:19:36 AM 53.0831 -2.5836 132° Southeast 432 497 34,000  Level FlightAware ADS-B
Sat 04:19:43 AM 53.0740 -2.5655 134° Southeast 430 495 34,000  Level FlightAware ADS-B
Sat 04:19:46 AM 53.0628 -2.5461 136° Southeast 429 494 34,000  Level FlightAware ADS-B
Sat 04:19:55 AM 53.0425 -2.5171 141° Southeast 418 481 34,000  Level FlightAware ADS-B (EGCC / MAN)
Sat 04:19:59 AM 53.0370 -2.5097 141° Southeast 417 480 34,000 -1,636 Level FlightAware ADS-B (EGCD)
Sat 04:20:17 AM 53.0090 -2.4730 142° Southeast 422 486 33,400 -1,946 Descending FlightAware ADS-B (EGCW)
Sat 04:20:36 AM 52.9800 -2.4352 142° Southeast 425 489 32,800 -1,920 Descending FlightAware ADS-B
Sat 04:21:07 AM 52.9335 -2.3750 142° Southeast 426 490 31,800 -1,953 Descending FlightAware ADS-B
Sat 04:21:19 AM 52.9127 -2.3481 141° Southeast 418 481 31,400 -1,826 Descending FlightAware ADS-B
Sat 04:21:30 AM 52.8966 -2.3272 141° Southeast 418 481 31,100 -1,857 Descending FlightAware ADS-B
Sat 04:22:01 AM 52.8489 -2.2658 142° Southeast 426 490 30,100 -1,800 Descending FlightAware ADS-B (EGCW)
Sat 04:22:10 AM 52.8347 -2.2474 141° Southeast 416 479 29,900 -1,200 Descending FlightAware ADS-B
Sat 04:22:21 AM 52.8184 -2.2264 141° Southeast 412 474 29,700 -1,355 Descending FlightAware ADS-B
Sat 04:22:41 AM 52.7867 -2.1856 141° Southeast 410 472 29,200 -1,286 Descending FlightAware ADS-B
Sat 04:22:49 AM 52.7760 -2.1718 141° Southeast 408 470 29,100 -462 Descending FlightAware ADS-B (EGCC / MAN)
Sat 04:23:20 AM 52.7286 -2.1112 142° Southeast 409 471 28,900 -585 Descending FlightAware ADS-B
Sat 04:23:30 AM 52.7135 -2.0919 141° Southeast 409 471 28,700 -2,195 Descending FlightAware ADS-B (EGNR / CEG)
Sat 04:24:01 AM 52.6673 -2.0329 142° Southeast 408 470 27,400 -2,000 Descending FlightAware ADS-B (EGCW)
Sat 04:24:33 AM 52.6193 -1.9718 142° Southeast 396 456 26,600 -1,254 Descending FlightAware ADS-B
Sat 04:25:08 AM 52.5686 -1.9074 142° Southeast 391 450 26,000 -1,273 Descending FlightAware ADS-B (EGCC / MAN)
Sat 04:25:39 AM 52.5285 -1.8568 143° Southeast 389 448 25,200 -1,377 Descending FlightAware ADS-B
Sat 04:26:09 AM 52.4884 -1.8062 142° Southeast 385 443 24,600 -1,463 Descending FlightAware ADS-B (EGHP)
Sat 04:26:20 AM 52.4684 -1.7809 142° Southeast 381 438 24,200 -1,935 Descending FlightAware ADS-B (EGCW)
Sat 04:26:40 AM 52.4385 -1.7432 142° Southeast 370 426 23,600 -2,444 Descending FlightAware ADS-B (EGCC / MAN)
Sat 04:26:47 AM 52.4299 -1.7324 143° Southeast 374 430 23,100 -2,919 Descending FlightAware ADS-B
Sat 04:27:17 AM 52.3960 -1.6899 143° Southeast 367 422 21,800 -2,727 Descending FlightAware ADS-B
Sat 04:27:20 AM 52.3855 -1.6767 142° Southeast 366 421 21,600 -2,000 Descending FlightAware ADS-B (EGLC / LCY)
Sat 04:27:26 AM 52.3760 -1.6648 142° Southeast 362 417 21,500 -1,846 Descending FlightAware ADS-B (EGDM)
Sat 04:27:46 AM 52.3509 -1.6334 142° Southeast 346 398 20,800 -2,057 Descending FlightAware ADS-B (EGNR / CEG)
Sat 04:28:01 AM 52.3326 -1.6104 142° Southeast 344 396 20,300 -1,875 Descending FlightAware ADS-B
Sat 04:28:34 AM 52.2895 -1.5568 143° Southeast 347 399 19,300 -1,524 Descending FlightAware ADS-B
Sat 04:29:04 AM 52.2522 -1.5104 142° Southeast 333 383 18,700 -1,304 Descending FlightAware ADS-B
Sat 04:29:20 AM 52.2328 -1.4862 142° Southeast 332 382 18,300 -1,500 Descending FlightAware ADS-B
Sat 04:29:28 AM 52.2223 -1.4732 143° Southeast 338 389 18,100 -1,429 Descending FlightAware ADS-B (EGLC / LCY)
Sat 04:29:41 AM 52.2071 -1.4526 139° Southeast 338 389 17,800 -1,375 Descending FlightAware ADS-B
Sat 04:30:16 AM 52.1651 -1.3939 140° Southeast 334 384 17,000 -1,277 Descending FlightAware ADS-B
Sat 04:30:28 AM 52.1519 -1.3756 139° Southeast 333 383 16,800 -1,304 Descending FlightAware ADS-B
Sat 04:30:39 AM 52.1391 -1.3577 140° Southeast 333 383 16,500 -1,429 Descending FlightAware ADS-B (EGHP)
Sat 04:31:10 AM 52.1085 -1.3152 139° Southeast 329 379 15,800 -1,263 Descending FlightAware ADS-B
Sat 04:31:17 AM 52.0941 -1.2951 140° Southeast 333 383 15,700 -1,579 Descending FlightAware ADS-B
Sat 04:31:48 AM 52.0609 -1.2489 140° Southeast 331 381 14,800 -2,057 Descending FlightAware ADS-B
Sat 04:31:52 AM 52.0538 -1.2391 140° Southeast 331 381 14,500 -1,333 Descending FlightAware ADS-B (EGDM)
Sat 04:32:15 AM 52.0282 -1.2036 139° Southeast 331 381 14,200 -889 Descending FlightAware ADS-B
Sat 04:32:19 AM 52.0293 -1.2051 139° Southeast 329 379 14,100 -1,091 Descending FlightAware ADS-B (EGLF / FAB)
Sat 04:32:26 AM 52.0144 -1.1846 139° Southeast 320 368 14,000 -316 Descending FlightAware ADS-B (EGHH / BOH)
Sat 04:32:38 AM 52.0009 -1.1658 140° Southeast 326 375 14,000  Level FlightAware ADS-B (EGLC / LCY)
Sat 04:32:43 AM 51.9947 -1.1573 139° Southeast 320 368 14,000 -462 Level FlightAware ADS-B
Sat 04:32:51 AM 51.9859 -1.1451 139° Southeast 321 369 13,900 -818 Descending FlightAware ADS-B (EGHH / BOH)
Sat 04:33:05 AM 51.9711 -1.1247 139° Southeast 321 369 13,700 -1,350 Descending FlightAware ADS-B (EGNR / CEG)
Sat 04:33:31 AM 51.9436 -1.0867 140° Southeast 327 376 13,000 -1,368 Descending FlightAware ADS-B (EGDM)
Sat 04:34:02 AM 51.9049 -1.0335 140° Southeast 323 372 12,400 -933 Descending FlightAware ADS-B (EGLC / LCY)
Sat 04:34:16 AM 51.8893 -1.0119 139° Southeast 307 353 12,300 -400 Descending FlightAware ADS-B (EGHH / BOH)
Sat 04:34:47 AM 51.8569 -0.9656 130° Southeast 299 344 12,100 -486 Descending FlightAware ADS-B (EGLC / LCY)
Sat 04:34:53 AM 51.8510 -0.9520 122° Southeast 299 344 12,000 -353 Descending FlightAware ADS-B
Sat 04:35:04 AM 51.8446 -0.9331 116° Southeast 291 335 12,000 -439 Level FlightAware ADS-B (EGHH / BOH)
Sat 04:35:34 AM 51.8264 -0.8745 117° Southeast 283 326 11,700 -649 Descending FlightAware ADS-B (EGLC / LCY)
Sat 04:35:41 AM 51.8221 -0.8608 115° Southeast 278 320 11,600 -1,000 Descending FlightAware ADS-B (EGHH / BOH)
Sat 04:35:58 AM 51.8127 -0.8299 115° Southeast 275 316 11,300 -1,500 Descending FlightAware ADS-B
Sat 04:36:01 AM 51.8106 -0.8232 115° Southeast 275 316 11,100 -1,385 Descending FlightAware ADS-B
Sat 04:36:11 AM 51.8055 -0.8064 115° Southeast 276 318 11,000 3,375 Descending FlightAware ADS-B (EGHH / BOH)
Sat 04:36:17 AM 51.8070 -0.8112 121° Southeast 299 344 12,000 -923 Climbing FlightAware ADS-B (EGTC)
Sat 04:36:24 AM 51.7983 -0.7830 116° Southeast 279 321 10,800 -4,000 Descending FlightAware ADS-B (KUAO)
Sat 04:36:38 AM 51.7897 -0.7552 115° Southeast 273 314 10,600 -818 Descending FlightAware ADS-B (EGHH / BOH)
Sat 04:36:46 AM 51.7850 -0.7397 115° Southeast 272 313 10,500 -643 Descending FlightAware ADS-B
Sat 04:37:06 AM 51.7800 -0.7234 117° Southeast 274 315 10,300 -960 Descending FlightAware ADS-B
Sat 04:37:11 AM 51.7715 -0.6959 115° Southeast 268 308 10,100 -1,200 Descending FlightAware ADS-B
Sat 04:37:16 AM 51.7688 -0.6873 117° Southeast 272 313 10,100 -400 Level FlightAware ADS-B
Sat 04:37:26 AM 51.7627 -0.6675 115° Southeast 265 305 10,000 -400 Descending FlightAware ADS-B
Sat 04:37:31 AM 51.7603 -0.6597 115° Southeast 266 306 10,000  Level FlightAware ADS-B
Sat 04:37:46 AM 51.7518 -0.6323 115° Southeast 268 308 10,000  Level FlightAware ADS-B
Sat 04:38:01 AM 51.7436 -0.6072 115° Southeast 268 308 10,000  Level FlightAware ADS-B (EGHI / SOU)
Sat 04:38:27 AM 51.7289 -0.5581 115° Southeast 266 306 10,000  Level FlightAware ADS-B
Sat 04:38:31 AM 51.7269 -0.5521 119° Southeast 268 308 10,000  Level FlightAware ADS-B
Sat 04:38:37 AM 51.7237 -0.5436 127° Southeast 266 306 10,000  Level FlightAware ADS-B (KBGR)
Sat 04:38:46 AM 51.7147 -0.5289 143° Southeast 258 297 10,000  Level FlightAware ADS-B (EGLF / FAB)
Sat 04:38:50 AM 51.7118 -0.5258 148° Southeast 256 295 10,000  Level FlightAware ADS-B (EGLF / FAB)
Sat 04:38:57 AM 51.7050 -0.5207 161° South 250 288 10,000  Level FlightAware ADS-B (KBGR)
Sat 04:39:04 AM 51.7002 -0.5185 175° South 243 280 10,000  Level FlightAware ADS-B (EGSR)
Sat 04:39:08 AM 51.6944 -0.5174 182° South 239 275 10,000  Level FlightAware ADS-B (EGLF / FAB)
Sat 04:39:11 AM 51.6962 -0.5176 172° South 245 282 10,000  Level FlightAware ADS-B
Sat 04:39:16 AM 51.6826 -0.5198 197° South 232 267 10,000  Level FlightAware ADS-B (EGLC / LCY)
Sat 04:39:21 AM 51.6790 -0.5218 204° Southwest 229 264 10,000  Level FlightAware ADS-B
Sat 04:39:27 AM 51.6766 -0.5235 214° Southwest 226 260 10,000  Level FlightAware ADS-B (EGLF / FAB)
Sat 04:39:37 AM 51.6648 -0.5384 230° Southwest 220 253 10,000  Level FlightAware ADS-B (EGLC / LCY)
Sat 04:39:42 AM 51.6617 -0.5452 238° Southwest 213 245 10,000  Level FlightAware ADS-B
Sat 04:39:47 AM 51.6592 -0.5530 246° West 215 247 10,000  Level FlightAware ADS-B (EGLC / LCY)
Sat 04:39:57 AM 51.6565 -0.5685 261° West 215 247 10,000  Level FlightAware ADS-B (KBGR)
Sat 04:40:01 AM 51.6561 -0.5750 268° West 215 247 10,000  Level FlightAware ADS-B
Sat 04:40:05 AM 51.6561 -0.5783 275° West 216 249 10,000  Level FlightAware ADS-B (EGLF / FAB)
Sat 04:40:10 AM 51.6568 -0.5890 281° West 217 250 10,000  Level FlightAware ADS-B (EGHP)
Sat 04:40:17 AM 51.6584 -0.5978 291° West 219 252 10,000  Level FlightAware ADS-B (EGLC / LCY)
Sat 04:40:33 AM 51.6641 -0.6173 297° West 219 252 10,000 -581 Level FlightAware ADS-B (EGLC / LCY)
Sat 04:40:48 AM 51.6728 -0.6457 296° West 218 251 9,700 -1,125 Descending FlightAware ADS-B
Sat 04:41:05 AM 51.6799 -0.6689 296° West 219 252 9,400 -1,000 Descending FlightAware ADS-B (EGLF / FAB)
Sat 04:41:24 AM 51.6889 -0.6979 296° West 219 252 9,100 -649 Descending FlightAware ADS-B (EGLC / LCY)
Sat 04:41:42 AM 51.6958 -0.7185 305° West 221 254 9,000 -261 Descending FlightAware ADS-B
Sat 04:41:47 AM 51.6992 -0.7253 312° West 223 257 9,000  Level FlightAware ADS-B
Sat 04:41:52 AM 51.7057 -0.7343 324° Northwest 228 262 9,000  Level FlightAware ADS-B
Sat 04:41:56 AM 51.7091 -0.7378 330° Northwest 231 266 9,000  Level FlightAware ADS-B
Sat 04:42:03 AM 51.7167 -0.7428 342° North 237 273 9,000  Level FlightAware ADS-B
Sat 04:42:09 AM 51.7222 -0.7446 352° North 243 280 9,000  Level FlightAware ADS-B
Sat 04:42:13 AM 51.7211 -0.7444 359° North 247 284 9,000  Level FlightAware ADS-B
Sat 04:42:16 AM 51.7302 -0.7449 North 251 289 9,000  Level FlightAware ADS-B (KBGR)
Sat 04:42:20 AM 51.7335 -0.7442 12° North 254 292 9,000  Level FlightAware ADS-B (EGHP)
Sat 04:42:27 AM 51.7400 -0.7413 20° North 258 297 9,000  Level FlightAware ADS-B
Sat 04:42:31 AM 51.7470 -0.7353 33° Northeast 263 303 9,000  Level FlightAware ADS-B (EGLC / LCY)
Sat 04:42:36 AM 51.7489 -0.7333 40° Northeast 264 304 9,000  Level FlightAware ADS-B (KBGR)
Sat 04:42:42 AM 51.7541 -0.7255 56° Northeast 267 307 9,000  Level FlightAware ADS-B
Sat 04:42:45 AM 51.7580 -0.7169 60° Northeast 268 308 9,000  Level FlightAware ADS-B (EGLC / LCY)
Sat 04:42:50 AM 51.7600 -0.7110 65° Northeast 268 308 9,000  Level FlightAware ADS-B (EGLF / FAB)
Sat 04:42:56 AM 51.7630 -0.6955 79° East 268 308 9,000  Level FlightAware ADS-B (EGLC / LCY)
Sat 04:43:03 AM 51.7634 -0.6818 94° East 267 307 9,000  Level FlightAware ADS-B
Sat 04:43:07 AM 51.7626 -0.6731 96° East 266 306 9,000  Level FlightAware ADS-B (EGLF / FAB)
Sat 04:43:15 AM 51.7593 -0.6578 115° Southeast 263 303 9,000  Level FlightAware ADS-B
Sat 04:43:20 AM 51.7568 -0.6495 117° Southeast 263 303 9,000  Level FlightAware ADS-B (EGHP)
Sat 04:43:36 AM 51.7478 -0.6205 116° Southeast 262 302 9,000  Level FlightAware ADS-B (KBGR)
Sat 04:43:51 AM 51.7410 -0.5981 116° Southeast 263 303 9,000  Level FlightAware ADS-B
Sat 04:44:08 AM 51.7310 -0.5656 116° Southeast 263 303 9,000  Level FlightAware ADS-B (EGLF / FAB)
Sat 04:44:19 AM 51.7247 -0.5466 121° Southeast 261 300 9,000  Level FlightAware ADS-B (EGLC / LCY)
Sat 04:44:28 AM 51.7188 -0.5351 141° Southeast 252 290 9,000 -571 Level FlightAware ADS-B (EGLC / LCY)
Sat 04:44:40 AM 51.7068 -0.5231 157° South 245 282 8,800 -1,071 Descending FlightAware ADS-B (EGLF / FAB)
Sat 04:44:56 AM 51.6955 -0.5164 161° South 243 280 8,500 -1,000 Descending FlightAware ADS-B
Sat 04:45:10 AM 51.6735 -0.5045 161° South 236 272 8,300 -800 Descending FlightAware ADS-B
Sat 04:45:26 AM 51.6588 -0.4967 162° South 244 281 8,100 -720 Descending FlightAware ADS-B
Sat 04:45:35 AM 51.6510 -0.4927 162° South 235 270 8,000 -250 Descending FlightAware ADS-B (KUAO)
Sat 04:45:50 AM 51.6336 -0.4839 162° South 240 276 8,000  Level FlightAware ADS-B (EGLF / FAB)
Sat 04:45:56 AM 51.6276 -0.4805 156° South 244 281 8,000  Level FlightAware ADS-B
Sat 04:46:04 AM 51.6171 -0.4697 140° Southeast 249 287 8,000  Level FlightAware ADS-B (EGHI / SOU)
Sat 04:46:08 AM 51.6142 -0.4647 126° Southeast 255 293 8,000  Level FlightAware ADS-B (EGLF / FAB)
Sat 04:46:12 AM 51.6238 -0.4777 151° Southeast 245 282 8,000  Level FlightAware ADS-B
Sat 04:46:16 AM 51.6124 -0.4611 117° Southeast 258 297 8,000  Level FlightAware ADS-B (KBGR)
Sat 04:46:24 AM 51.6066 -0.4378 101° East 260 299 8,000  Level FlightAware ADS-B (EGHI / SOU)
Sat 04:46:29 AM 51.6056 -0.4279 98° East 263 303 8,000 -300 Level FlightAware ADS-B (LERS / REU)
Sat 04:46:44 AM 51.6033 -0.3987 97° East 264 304 7,900 -774 Descending FlightAware ADS-B (EGHI / SOU)
Sat 04:47:00 AM 51.6010 -0.3685 97° East 263 303 7,600 -938 Descending FlightAware ADS-B
Sat 04:47:16 AM 51.5984 -0.3359 97° East 261 300 7,400 -750 Descending FlightAware ADS-B (KBGR)
Sat 04:47:32 AM 51.5964 -0.3101 97° East 259 298 7,200 -882 Descending FlightAware ADS-B
Sat 04:47:50 AM 51.5936 -0.2718 96° East 259 298 6,900 -960 Descending FlightAware ADS-B (EGLF / FAB)
Sat 04:47:57 AM 51.5926 -0.2572 95° East 257 296 6,800 -600 Descending FlightAware ADS-B
Sat 04:48:00 AM 51.5922 -0.2517 94° East 257 296 6,800 -947 Level FlightAware ADS-B
Sat 04:48:16 AM 51.5906 -0.2264 96° East 258 297 6,500 -818 Descending FlightAware ADS-B (KBGR)
Sat 04:48:22 AM 51.5896 -0.2101 94° East 257 296 6,500 -571 Level FlightAware ADS-B
Sat 04:48:37 AM 51.5878 -0.1820 96° East 251 289 6,300 -667 Descending FlightAware ADS-B (EGLC / LCY)
Sat 04:48:40 AM 51.5874 -0.1768 94° East 251 289 6,300 -600 Level FlightAware ADS-B
Sat 04:48:57 AM 51.5855 -0.1467 96° East 252 290 6,100 -643 Descending FlightAware ADS-B (EGLF / FAB)
Sat 04:49:08 AM 51.5851 -0.1404 98° East 251 289 6,000 -375 Descending FlightAware ADS-B (EGLF / FAB)
Sat 04:49:13 AM 51.5825 -0.1166 107° East 248 285 6,000  Level FlightAware ADS-B (EGLC / LCY)
Sat 04:49:18 AM 51.5811 -0.1099 112° Southeast 247 284 6,000 -400 Level FlightAware ADS-B (EGLF / FAB)
Sat 04:49:28 AM 51.5760 -0.0912 115° Southeast 246 283 5,900 -480 Descending FlightAware ADS-B (EGLC / LCY)
Sat 04:49:43 AM 51.5688 -0.0664 115° Southeast 247 284 5,800 -500 Descending FlightAware ADS-B
Sat 04:49:52 AM 51.5641 -0.0501 115° Southeast 245 282 5,700 -545 Descending FlightAware ADS-B (EGLC / LCY)
Sat 04:50:05 AM 51.5583 -0.0301 113° Southeast 243 280 5,600 -353 Descending FlightAware ADS-B
Sat 04:50:09 AM 51.5560 -0.0221 113° Southeast 243 280 5,600 -500 Level FlightAware ADS-B
Sat 04:50:17 AM 51.5529 -0.0122 121° Southeast 242 278 5,500 -667 Descending FlightAware ADS-B (EGLC / LCY)
Sat 04:50:27 AM 51.5445 0.0036 141° Southeast 231 266 5,400 -632 Descending FlightAware ADS-B
Sat 04:50:36 AM 51.5371 0.0097 161° South 220 253 5,300 -632 Descending FlightAware ADS-B (EGLC / LCY)
Sat 04:50:46 AM 51.5266 0.0135 171° South 214 246 5,200 -720 Descending FlightAware ADS-B
Sat 04:51:01 AM 51.5132 0.0165 173° South 207 238 5,000 -783 Descending FlightAware ADS-B (EGLC / LCY)
Sat 04:51:09 AM 51.5072 0.0172 186° South 197 227 4,900 -400 Descending FlightAware ADS-B (EGLC / LCY)
Sat 04:51:16 AM 51.4994 0.0152 198° South 190 219 4,900  Level FlightAware ADS-B (EGLC / LCY)
Sat 04:51:21 AM 51.4961 0.0124 209° Southwest 185 213 4,900 -667 Level FlightAware ADS-B (EGLC / LCY)
Sat 04:51:25 AM 51.4931 0.0088 220° Southwest 181 208 4,800 -750 Descending FlightAware ADS-B (EGLC / LCY)
Sat 04:51:29 AM 51.4905 0.0045 230° Southwest 174 200 4,800 -316 Level FlightAware ADS-B
Sat 04:51:44 AM 51.4833 -0.0108 236° Southwest 176 203 4,700 -462 Descending FlightAware ADS-B
Sat 04:51:55 AM 51.4783 -0.0224 236° Southwest 174 200 4,600 -632 Descending FlightAware ADS-B (EGLC / LCY)
Sat 04:52:03 AM 51.4744 -0.0318 115° Southeast 245 282 4,500 -400 Descending FlightAware ADS-B (EGLF / FAB)
Sat 04:52:10 AM 51.4719 -0.0379 236° Southwest 173 199 4,500 -545 Level FlightAware ADS-B (EGLF / FAB)
Sat 04:52:14 AM 51.4699 -0.0439 247° West 174 200 4,400 -600 Descending FlightAware ADS-B (EGLC / LCY)
Sat 04:52:20 AM 51.4719 -0.0379 253° West 172 198 4,400 -400 Level FlightAware ADS-B (EGLF / FAB)
Sat 04:52:29 AM 51.4668 -0.0627 263° West 170 196 4,300 -462 Descending FlightAware ADS-B
Sat 04:52:46 AM 51.4654 -0.0833 267° West 171 197 4,200 -188 Descending FlightAware ADS-B (EGLC / LCY)
Sat 04:53:01 AM 51.4655 -0.1007 270° West 167 192 4,200 -194 Level FlightAware ADS-B
Sat 04:53:17 AM 51.4655 -0.1196 270° West 164 189 4,100 -727 Descending FlightAware ADS-B (EGLF / FAB)
Sat 04:53:34 AM 51.4655 -0.1423 270° West 161 185 3,800 -882 Descending FlightAware ADS-B
Sat 04:53:51 AM 51.4655 -0.1575 270° West 154 177 3,600 -769 Descending FlightAware ADS-B (EGLC / LCY)
Sat 04:54:13 AM 51.4654 -0.1720 270° West 153 176 3,300 -923 Descending FlightAware ADS-B
Sat 04:54:30 AM 51.4655 -0.2046 270° West 153 176 3,000 -938 Descending FlightAware ADS-B (EGLF / FAB)
Sat 04:54:45 AM 51.4654 -0.2233 270° West 154 177 2,800 -800 Descending FlightAware ADS-B (EGLC / LCY)
Sat 04:55:00 AM 51.4654 -0.2391 270° West 153 176 2,600 -774 Descending FlightAware ADS-B (EGLF / FAB)
Sat 04:55:16 AM 51.4654 -0.2541 270° West 155 178 2,400 -774 Descending FlightAware ADS-B (EGLC / LCY)
Sat 04:55:31 AM 51.4653 -0.2693 270° West 160 184 2,200 -909 Descending FlightAware ADS-B (EGLC / LCY)
Sat 04:55:49 AM 51.4653 -0.2834 270° West 157 181 1,900 -882 Descending FlightAware ADS-B (EGLC / LCY)
Sat 04:56:05 AM 51.4653 -0.3160 270° West 155 178 1,700 -882 Descending FlightAware ADS-B
Sat 04:56:23 AM 51.4652 -0.3353 270° West 148 170 1,400 -837 Descending FlightAware ADS-B
Sat 04:56:48 AM 51.4652 -0.3567 270° West 129 148 1,100 -682 Descending FlightAware ADS-B
Sat 04:57:07 AM 51.4651 -0.3787 270° West 130 150 900 -529 Descending FlightAware ADS-B
Sat 04:57:22 AM 51.4651 -0.3923 270° West 132 152 800 -621 Descending FlightAware ADS-B (EGLL / LHR)
Sat 04:57:36 AM 51.4650 -0.4073 269° West 132 152 600 -800 Descending FlightAware ADS-B (KBGR)
Sat 04:57:52 AM 51.4650 -0.4217 270° West 132 152 400 -649 Descending FlightAware ADS-B (EGLL / LHR)
Sat 04:58:13 AM 51.4650 -0.4436 270° West 126 145 200 -571 Descending FlightAware ADS-B

Login

Don't have an account? Register now (free) for customized features, flight alerts, and more!